-13.53C
облачно с прояснениями
облачно с прояснениями
Дата и времяТемператураДавление, мм рт.ст.Влажность, %Осадки
МинимумМаксимум
07.12.2022 08:00-13.88C-13.65C76589облачно с прояснениями
07.12.2022 11:00-11.86C-11.03C76488облачно с прояснениями
07.12.2022 14:00-11.28C-11.28C76285пасмурно
07.12.2022 17:00-11.67C-11.67C76090пасмурно
07.12.2022 20:00-11.65C-11.65C75984пасмурно
07.12.2022 23:00-12.7C-12.7C75983пасмурно
08.12.2022 02:00-12.57C-12.57C75985пасмурно
08.12.2022 05:00-12.82C-12.82C75887пасмурно
08.12.2022 08:00-13.84C-13.84C75790пасмурно
08.12.2022 11:00-14.09C-14.09C75791пасмурно
08.12.2022 14:00-15.25C-15.25C75794пасмурно
08.12.2022 17:00-16.54C-16.54C75894пасмурно
08.12.2022 20:00-20.14C-20.14C75995небольшой снег
08.12.2022 23:00-22.25C-22.25C76293небольшой снег
09.12.2022 02:00-23.61C-23.61C76495пасмурно
09.12.2022 05:00-26.58C-26.58C76595пасмурно
09.12.2022 08:00-29.54C-29.54C76694переменная облачность
09.12.2022 11:00-30C-30C76796переменная облачность
09.12.2022 14:00-29.66C-29.66C76895переменная облачность
09.12.2022 17:00-24.6C-24.6C76887облачно с прояснениями
09.12.2022 20:00-21.2C-21.2C76896пасмурно
09.12.2022 23:00-23.2C-23.2C76989облачно с прояснениями
10.12.2022 02:00-24.63C-24.63C77188небольшая облачность
10.12.2022 05:00-22.11C-22.11C77185переменная облачность
10.12.2022 08:00-21.85C-21.85C77186пасмурно
10.12.2022 11:00-20.17C-20.17C77388пасмурно
10.12.2022 14:00-22.65C-22.65C77491пасмурно
10.12.2022 17:00-24.07C-24.07C77592облачно с прояснениями
10.12.2022 20:00-24.76C-24.76C77694облачно с прояснениями
10.12.2022 23:00-25.29C-25.29C77695облачно с прояснениями
11.12.2022 02:00-25.81C-25.81C77796облачно с прояснениями
11.12.2022 05:00-26.24C-26.24C77797переменная облачность
11.12.2022 08:00-26.41C-26.41C77799переменная облачность
11.12.2022 11:00-26.15C-26.15C77695переменная облачность
11.12.2022 14:00-26.22C-26.22C77495небольшая облачность
11.12.2022 17:00-25.97C-25.97C77396облачно с прояснениями
11.12.2022 20:00-21.29C-21.29C77089пасмурно
11.12.2022 23:00-19.16C-19.16C76598небольшой снег
12.12.2022 02:00-17.47C-17.47C76298снег
12.12.2022 05:00-18.21C-18.21C75899небольшой снег
Дата и время наблюдения: 07.12.2022 05:10:29